sensor_id;sensor_type;location;lat;lon;timestamp;P1;durP1;ratioP1;P2;durP2;ratioP2
69748;SDS011;57019;52.354;6.584;2022-09-09T00:00:19;4.18;;;1.00;;
69748;SDS011;57019;52.354;6.584;2022-09-09T00:02:51;5.20;;;1.10;;
69748;SDS011;57019;52.354;6.584;2022-09-09T00:05:22;3.60;;;0.95;;
69748;SDS011;57019;52.354;6.584;2022-09-09T00:07:53;4.95;;;1.10;;
69748;SDS011;57019;52.354;6.584;2022-09-09T00:12:58;4.00;;;0.90;;
69748;SDS011;57019;52.354;6.584;2022-09-09T00:15:35;5.07;;;1.00;;
69748;SDS011;57019;52.354;6.584;2022-09-09T00:20:57;4.47;;;1.00;;
69748;SDS011;57019;52.354;6.584;2022-09-09T00:23:28;4.47;;;1.00;;
69748;SDS011;57019;52.354;6.584;2022-09-09T00:31:32;4.05;;;1.02;;
69748;SDS011;57019;52.354;6.584;2022-09-09T00:33:58;3.70;;;0.93;;
69748;SDS011;57019;52.354;6.584;2022-09-09T00:36:29;4.68;;;1.08;;
69748;SDS011;57019;52.354;6.584;2022-09-09T00:38:59;3.55;;;1.05;;
69748;SDS011;57019;52.354;6.584;2022-09-09T00:50:03;3.33;;;0.90;;
69748;SDS011;57019;52.354;6.584;2022-09-09T00:52:50;3.13;;;0.90;;
69748;SDS011;57019;52.354;6.584;2022-09-09T00:58:30;3.53;;;1.00;;
69748;SDS011;57019;52.354;6.584;2022-09-09T01:03:46;3.63;;;1.10;;
69748;SDS011;57019;52.354;6.584;2022-09-09T01:14:17;4.95;;;1.45;;
69748;SDS011;57019;52.354;6.584;2022-09-09T01:16:56;3.95;;;1.02;;
69748;SDS011;57019;52.354;6.584;2022-09-09T01:19:37;4.23;;;1.10;;
69748;SDS011;57019;52.354;6.584;2022-09-09T01:27:52;4.30;;;1.10;;
69748;SDS011;57019;52.354;6.584;2022-09-09T01:30:21;4.35;;;1.00;;
69748;SDS011;57019;52.354;6.584;2022-09-09T01:32:53;4.80;;;1.23;;
69748;SDS011;57019;52.354;6.584;2022-09-09T01:38:11;6.18;;;1.08;;
69748;SDS011;57019;52.354;6.584;2022-09-09T01:40:38;3.67;;;1.00;;
69748;SDS011;57019;52.354;6.584;2022-09-09T01:43:04;5.43;;;1.10;;
69748;SDS011;57019;52.354;6.584;2022-09-09T01:45:29;3.80;;;1.10;;
69748;SDS011;57019;52.354;6.584;2022-09-09T01:47:56;3.73;;;1.10;;
69748;SDS011;57019;52.354;6.584;2022-09-09T01:50:22;5.35;;;1.10;;
69748;SDS011;57019;52.354;6.584;2022-09-09T01:52:53;4.68;;;1.13;;
69748;SDS011;57019;52.354;6.584;2022-09-09T01:55:32;3.65;;;1.10;;
69748;SDS011;57019;52.354;6.584;2022-09-09T02:00:53;4.27;;;1.00;;
69748;SDS011;57019;52.354;6.584;2022-09-09T02:03:28;5.38;;;1.30;;
69748;SDS011;57019;52.354;6.584;2022-09-09T02:08:43;4.20;;;1.23;;
69748;SDS011;57019;52.354;6.584;2022-09-09T02:11:16;4.10;;;1.10;;
69748;SDS011;57019;52.354;6.584;2022-09-09T02:13:44;7.00;;;1.30;;
69748;SDS011;57019;52.354;6.584;2022-09-09T02:16:12;4.95;;;1.20;;
69748;SDS011;57019;52.354;6.584;2022-09-09T02:21:18;5.07;;;1.23;;
69748;SDS011;57019;52.354;6.584;2022-09-09T02:23:44;5.03;;;1.13;;
69748;SDS011;57019;52.354;6.584;2022-09-09T02:26:12;3.97;;;1.13;;
69748;SDS011;57019;52.354;6.584;2022-09-09T02:28:44;3.47;;;1.10;;
69748;SDS011;57019;52.354;6.584;2022-09-09T02:31:11;4.75;;;1.30;;
69748;SDS011;57019;52.354;6.584;2022-09-09T02:33:41;4.47;;;1.23;;
69748;SDS011;57019;52.354;6.584;2022-09-09T02:36:12;8.52;;;1.20;;
69748;SDS011;57019;52.354;6.584;2022-09-09T02:38:42;5.60;;;1.40;;
69748;SDS011;57019;52.354;6.584;2022-09-09T02:41:21;4.13;;;1.08;;
69748;SDS011;57019;52.354;6.584;2022-09-09T02:43:51;3.97;;;1.02;;
69748;SDS011;57019;52.354;6.584;2022-09-09T02:51:53;6.10;;;1.10;;
69748;SDS011;57019;52.354;6.584;2022-09-09T02:54:26;4.68;;;1.10;;
69748;SDS011;57019;52.354;6.584;2022-09-09T02:56:56;4.73;;;1.10;;
69748;SDS011;57019;52.354;6.584;2022-09-09T02:59:46;4.13;;;1.10;;
69748;SDS011;57019;52.354;6.584;2022-09-09T03:02:13;5.00;;;1.20;;
69748;SDS011;57019;52.354;6.584;2022-09-09T03:04:39;3.90;;;1.00;;
69748;SDS011;57019;52.354;6.584;2022-09-09T03:07:05;4.37;;;1.20;;
69748;SDS011;57019;52.354;6.584;2022-09-09T03:09:30;3.45;;;0.98;;
69748;SDS011;57019;52.354;6.584;2022-09-09T03:11:57;4.43;;;1.20;;
69748;SDS011;57019;52.354;6.584;2022-09-09T03:14:23;5.70;;;1.00;;
69748;SDS011;57019;52.354;6.584;2022-09-09T03:16:52;4.53;;;1.15;;
69748;SDS011;57019;52.354;6.584;2022-09-09T03:19:18;4.07;;;1.13;;
69748;SDS011;57019;52.354;6.584;2022-09-09T03:21:44;4.53;;;1.00;;
69748;SDS011;57019;52.354;6.584;2022-09-09T03:24:12;4.18;;;1.20;;
69748;SDS011;57019;52.354;6.584;2022-09-09T03:26:38;4.20;;;1.15;;
69748;SDS011;57019;52.354;6.584;2022-09-09T03:29:05;4.55;;;1.17;;
69748;SDS011;57019;52.354;6.584;2022-09-09T03:31:31;3.73;;;0.90;;
69748;SDS011;57019;52.354;6.584;2022-09-09T03:33:57;4.90;;;1.10;;
69748;SDS011;57019;52.354;6.584;2022-09-09T03:36:24;3.92;;;1.40;;
69748;SDS011;57019;52.354;6.584;2022-09-09T03:38:53;3.43;;;1.00;;
69748;SDS011;57019;52.354;6.584;2022-09-09T03:41:20;4.38;;;1.08;;
69748;SDS011;57019;52.354;6.584;2022-09-09T03:43:49;3.80;;;1.00;;
69748;SDS011;57019;52.354;6.584;2022-09-09T03:46:21;3.53;;;0.98;;
69748;SDS011;57019;52.354;6.584;2022-09-09T03:48:47;3.97;;;1.05;;
69748;SDS011;57019;52.354;6.584;2022-09-09T03:51:13;4.07;;;1.03;;
69748;SDS011;57019;52.354;6.584;2022-09-09T03:53:39;4.63;;;1.15;;
69748;SDS011;57019;52.354;6.584;2022-09-09T03:56:05;4.27;;;1.17;;
69748;SDS011;57019;52.354;6.584;2022-09-09T03:58:32;4.22;;;1.08;;
69748;SDS011;57019;52.354;6.584;2022-09-09T04:00:59;4.75;;;1.10;;
69748;SDS011;57019;52.354;6.584;2022-09-09T04:03:29;4.03;;;1.10;;
69748;SDS011;57019;52.354;6.584;2022-09-09T04:05:56;4.43;;;1.20;;
69748;SDS011;57019;52.354;6.584;2022-09-09T04:08:22;5.07;;;1.20;;
69748;SDS011;57019;52.354;6.584;2022-09-09T04:10:50;4.43;;;1.20;;
69748;SDS011;57019;52.354;6.584;2022-09-09T04:13:17;4.27;;;1.10;;
69748;SDS011;57019;52.354;6.584;2022-09-09T04:15:43;4.50;;;1.08;;
69748;SDS011;57019;52.354;6.584;2022-09-09T04:18:14;5.78;;;1.20;;
69748;SDS011;57019;52.354;6.584;2022-09-09T04:20:40;4.67;;;1.07;;
69748;SDS011;57019;52.354;6.584;2022-09-09T04:23:05;4.27;;;1.07;;
69748;SDS011;57019;52.354;6.584;2022-09-09T04:25:30;3.60;;;0.90;;
69748;SDS011;57019;52.354;6.584;2022-09-09T04:27:56;3.80;;;1.20;;
69748;SDS011;57019;52.354;6.584;2022-09-09T04:30:23;5.17;;;1.10;;
69748;SDS011;57019;52.354;6.584;2022-09-09T04:32:50;3.70;;;1.02;;
69748;SDS011;57019;52.354;6.584;2022-09-09T04:35:15;4.70;;;1.10;;
69748;SDS011;57019;52.354;6.584;2022-09-09T04:37:41;4.60;;;1.03;;
69748;SDS011;57019;52.354;6.584;2022-09-09T04:40:06;4.03;;;1.00;;
69748;SDS011;57019;52.354;6.584;2022-09-09T04:42:37;4.00;;;1.02;;
69748;SDS011;57019;52.354;6.584;2022-09-09T04:45:03;3.67;;;1.00;;
69748;SDS011;57019;52.354;6.584;2022-09-09T04:47:30;3.40;;;0.82;;
69748;SDS011;57019;52.354;6.584;2022-09-09T04:49:55;4.33;;;1.20;;
69748;SDS011;57019;52.354;6.584;2022-09-09T04:52:21;3.97;;;1.00;;
69748;SDS011;57019;52.354;6.584;2022-09-09T04:54:47;6.88;;;1.55;;
69748;SDS011;57019;52.354;6.584;2022-09-09T04:57:13;5.80;;;1.10;;
69748;SDS011;57019;52.354;6.584;2022-09-09T04:59:38;4.10;;;1.10;;
69748;SDS011;57019;52.354;6.584;2022-09-09T05:02:04;4.30;;;1.10;;
69748;SDS011;57019;52.354;6.584;2022-09-09T05:04:29;5.25;;;1.33;;
69748;SDS011;57019;52.354;6.584;2022-09-09T05:06:55;3.93;;;1.20;;
69748;SDS011;57019;52.354;6.584;2022-09-09T05:09:21;3.87;;;1.00;;
69748;SDS011;57019;52.354;6.584;2022-09-09T05:11:46;4.95;;;1.10;;
69748;SDS011;57019;52.354;6.584;2022-09-09T05:14:11;3.20;;;1.00;;
69748;SDS011;57019;52.354;6.584;2022-09-09T05:16:37;5.00;;;1.00;;
69748;SDS011;57019;52.354;6.584;2022-09-09T05:19:02;7.53;;;1.20;;
69748;SDS011;57019;52.354;6.584;2022-09-09T05:21:28;4.25;;;1.00;;
69748;SDS011;57019;52.354;6.584;2022-09-09T05:23:55;7.90;;;1.03;;
69748;SDS011;57019;52.354;6.584;2022-09-09T05:26:21;5.45;;;1.00;;
69748;SDS011;57019;52.354;6.584;2022-09-09T05:28:47;3.72;;;1.00;;
69748;SDS011;57019;52.354;6.584;2022-09-09T05:31:14;6.83;;;1.30;;
69748;SDS011;57019;52.354;6.584;2022-09-09T05:33:41;6.30;;;1.00;;
69748;SDS011;57019;52.354;6.584;2022-09-09T05:36:09;5.15;;;1.13;;
69748;SDS011;57019;52.354;6.584;2022-09-09T05:38:38;4.07;;;1.10;;
69748;SDS011;57019;52.354;6.584;2022-09-09T05:41:04;6.83;;;1.17;;
69748;SDS011;57019;52.354;6.584;2022-09-09T05:43:30;5.53;;;1.10;;
69748;SDS011;57019;52.354;6.584;2022-09-09T05:46:01;5.45;;;1.10;;
69748;SDS011;57019;52.354;6.584;2022-09-09T05:48:45;5.97;;;1.50;;
69748;SDS011;57019;52.354;6.584;2022-09-09T05:51:12;4.63;;;0.93;;
69748;SDS011;57019;52.354;6.584;2022-09-09T05:53:40;5.03;;;1.30;;
69748;SDS011;57019;52.354;6.584;2022-09-09T05:56:08;7.97;;;1.27;;
69748;SDS011;57019;52.354;6.584;2022-09-09T05:58:39;6.40;;;1.30;;
69748;SDS011;57019;52.354;6.584;2022-09-09T06:03:31;6.30;;;1.10;;
69748;SDS011;57019;52.354;6.584;2022-09-09T06:05:59;5.10;;;1.20;;
69748;SDS011;57019;52.354;6.584;2022-09-09T06:08:26;6.65;;;1.23;;
69748;SDS011;57019;52.354;6.584;2022-09-09T06:10:51;4.65;;;1.27;;
69748;SDS011;57019;52.354;6.584;2022-09-09T06:13:17;8.73;;;1.30;;
69748;SDS011;57019;52.354;6.584;2022-09-09T06:15:52;4.45;;;1.10;;
69748;SDS011;57019;52.354;6.584;2022-09-09T06:18:17;6.25;;;1.23;;
69748;SDS011;57019;52.354;6.584;2022-09-09T06:20:53;5.57;;;1.07;;
69748;SDS011;57019;52.354;6.584;2022-09-09T06:23:20;9.90;;;1.27;;
69748;SDS011;57019;52.354;6.584;2022-09-09T06:25:46;6.03;;;1.20;;
69748;SDS011;57019;52.354;6.584;2022-09-09T06:28:11;5.90;;;1.20;;
69748;SDS011;57019;52.354;6.584;2022-09-09T06:30:38;8.45;;;1.30;;
69748;SDS011;57019;52.354;6.584;2022-09-09T06:33:04;6.05;;;1.10;;
69748;SDS011;57019;52.354;6.584;2022-09-09T06:35:30;6.47;;;1.47;;
69748;SDS011;57019;52.354;6.584;2022-09-09T06:37:55;6.17;;;1.30;;
69748;SDS011;57019;52.354;6.584;2022-09-09T06:40:21;6.00;;;1.27;;
69748;SDS011;57019;52.354;6.584;2022-09-09T06:42:46;5.63;;;1.15;;
69748;SDS011;57019;52.354;6.584;2022-09-09T06:45:13;4.53;;;1.10;;
69748;SDS011;57019;52.354;6.584;2022-09-09T06:47:38;7.88;;;1.20;;
69748;SDS011;57019;52.354;6.584;2022-09-09T06:50:04;5.40;;;1.20;;
69748;SDS011;57019;52.354;6.584;2022-09-09T06:52:31;6.38;;;1.30;;
69748;SDS011;57019;52.354;6.584;2022-09-09T06:54:56;5.53;;;1.30;;
69748;SDS011;57019;52.354;6.584;2022-09-09T06:57:23;5.78;;;1.20;;
69748;SDS011;57019;52.354;6.584;2022-09-09T06:59:49;5.67;;;1.30;;
69748;SDS011;57019;52.354;6.584;2022-09-09T07:02:14;6.13;;;1.30;;
69748;SDS011;57019;52.354;6.584;2022-09-09T07:04:39;7.47;;;1.40;;
69748;SDS011;57019;52.354;6.584;2022-09-09T07:07:05;5.00;;;1.20;;
69748;SDS011;57019;52.354;6.584;2022-09-09T07:09:30;5.00;;;1.50;;
69748;SDS011;57019;52.354;6.584;2022-09-09T07:11:56;5.43;;;1.30;;
69748;SDS011;57019;52.354;6.584;2022-09-09T07:14:24;6.28;;;1.35;;
69748;SDS011;57019;52.354;6.584;2022-09-09T07:16:49;6.53;;;1.50;;
69748;SDS011;57019;52.354;6.584;2022-09-09T07:19:15;5.67;;;1.60;;
69748;SDS011;57019;52.354;6.584;2022-09-09T07:21:41;6.50;;;1.40;;
69748;SDS011;57019;52.354;6.584;2022-09-09T07:24:07;5.43;;;1.30;;
69748;SDS011;57019;52.354;6.584;2022-09-09T07:26:35;5.47;;;1.40;;
69748;SDS011;57019;52.354;6.584;2022-09-09T07:29:01;7.57;;;1.48;;
69748;SDS011;57019;52.354;6.584;2022-09-09T07:31:27;5.70;;;1.37;;
69748;SDS011;57019;52.354;6.584;2022-09-09T07:33:57;7.15;;;1.55;;
69748;SDS011;57019;52.354;6.584;2022-09-09T07:36:28;4.93;;;1.20;;
69748;SDS011;57019;52.354;6.584;2022-09-09T07:39:06;6.10;;;1.52;;
69748;SDS011;57019;52.354;6.584;2022-09-09T07:41:34;7.00;;;1.70;;
69748;SDS011;57019;52.354;6.584;2022-09-09T07:44:06;5.95;;;1.38;;
69748;SDS011;57019;52.354;6.584;2022-09-09T07:46:39;6.40;;;1.38;;
69748;SDS011;57019;52.354;6.584;2022-09-09T07:49:05;6.70;;;1.50;;
69748;SDS011;57019;52.354;6.584;2022-09-09T07:51:32;5.70;;;1.30;;
69748;SDS011;57019;52.354;6.584;2022-09-09T07:54:00;7.72;;;1.95;;
69748;SDS011;57019;52.354;6.584;2022-09-09T07:56:30;11.02;;;1.60;;
69748;SDS011;57019;52.354;6.584;2022-09-09T07:58:56;12.07;;;1.55;;
69748;SDS011;57019;52.354;6.584;2022-09-09T08:01:34;6.43;;;1.43;;
69748;SDS011;57019;52.354;6.584;2022-09-09T08:04:05;7.28;;;1.75;;
69748;SDS011;57019;52.354;6.584;2022-09-09T08:06:37;8.20;;;1.45;;
69748;SDS011;57019;52.354;6.584;2022-09-09T08:09:04;5.25;;;1.40;;
69748;SDS011;57019;52.354;6.584;2022-09-09T08:11:32;7.30;;;1.40;;
69748;SDS011;57019;52.354;6.584;2022-09-09T08:13:58;8.97;;;1.60;;
69748;SDS011;57019;52.354;6.584;2022-09-09T08:16:25;5.00;;;1.40;;
69748;SDS011;57019;52.354;6.584;2022-09-09T08:18:52;7.38;;;1.50;;
69748;SDS011;57019;52.354;6.584;2022-09-09T08:21:23;6.70;;;1.50;;
69748;SDS011;57019;52.354;6.584;2022-09-09T08:23:50;7.95;;;1.45;;
69748;SDS011;57019;52.354;6.584;2022-09-09T08:26:21;6.73;;;1.43;;
69748;SDS011;57019;52.354;6.584;2022-09-09T08:28:50;6.97;;;1.50;;
69748;SDS011;57019;52.354;6.584;2022-09-09T08:31:18;6.10;;;1.58;;
69748;SDS011;57019;52.354;6.584;2022-09-09T08:33:46;6.07;;;1.30;;
69748;SDS011;57019;52.354;6.584;2022-09-09T08:36:13;6.40;;;1.67;;
69748;SDS011;57019;52.354;6.584;2022-09-09T08:38:40;7.78;;;1.50;;
69748;SDS011;57019;52.354;6.584;2022-09-09T08:43:47;5.57;;;1.30;;
69748;SDS011;57019;52.354;6.584;2022-09-09T08:46:26;7.03;;;1.40;;
69748;SDS011;57019;52.354;6.584;2022-09-09T08:49:04;8.47;;;1.40;;
69748;SDS011;57019;52.354;6.584;2022-09-09T08:51:42;8.68;;;1.88;;
69748;SDS011;57019;52.354;6.584;2022-09-09T08:54:08;7.93;;;1.50;;
69748;SDS011;57019;52.354;6.584;2022-09-09T08:56:35;6.00;;;1.40;;
69748;SDS011;57019;52.354;6.584;2022-09-09T08:59:01;8.60;;;1.50;;
69748;SDS011;57019;52.354;6.584;2022-09-09T09:04:45;6.78;;;1.40;;
69748;SDS011;57019;52.354;6.584;2022-09-09T09:13:01;8.68;;;1.88;;
69748;SDS011;57019;52.354;6.584;2022-09-09T09:15:33;7.93;;;1.60;;
69748;SDS011;57019;52.354;6.584;2022-09-09T09:18:03;7.97;;;1.55;;
69748;SDS011;57019;52.354;6.584;2022-09-09T09:20:37;7.60;;;1.60;;
69748;SDS011;57019;52.354;6.584;2022-09-09T09:23:32;7.82;;;1.70;;
69748;SDS011;57019;52.354;6.584;2022-09-09T09:26:05;9.15;;;1.38;;
69748;SDS011;57019;52.354;6.584;2022-09-09T09:28:34;7.97;;;1.80;;
69748;SDS011;57019;52.354;6.584;2022-09-09T09:31:05;7.53;;;1.40;;
69748;SDS011;57019;52.354;6.584;2022-09-09T09:36:17;7.13;;;1.52;;
69748;SDS011;57019;52.354;6.584;2022-09-09T09:38:57;7.70;;;1.33;;
69748;SDS011;57019;52.354;6.584;2022-09-09T09:41:35;7.40;;;1.30;;
69748;SDS011;57019;52.354;6.584;2022-09-09T09:44:03;10.27;;;1.43;;
69748;SDS011;57019;52.354;6.584;2022-09-09T09:46:31;7.63;;;1.40;;
69748;SDS011;57019;52.354;6.584;2022-09-09T09:49:00;6.70;;;1.50;;
69748;SDS011;57019;52.354;6.584;2022-09-09T09:51:29;7.25;;;1.30;;
69748;SDS011;57019;52.354;6.584;2022-09-09T09:54:03;6.35;;;1.25;;
69748;SDS011;57019;52.354;6.584;2022-09-09T09:56:48;9.10;;;1.47;;
69748;SDS011;57019;52.354;6.584;2022-09-09T10:01:54;6.75;;;1.60;;
69748;SDS011;57019;52.354;6.584;2022-09-09T10:04:20;5.30;;;1.50;;
69748;SDS011;57019;52.354;6.584;2022-09-09T10:06:51;8.02;;;1.60;;
69748;SDS011;57019;52.354;6.584;2022-09-09T10:09:23;7.73;;;1.50;;
69748;SDS011;57019;52.354;6.584;2022-09-09T10:22:53;8.48;;;1.50;;
69748;SDS011;57019;52.354;6.584;2022-09-09T10:25:36;7.32;;;1.58;;
69748;SDS011;57019;52.354;6.584;2022-09-09T10:34:01;6.80;;;1.53;;
69748;SDS011;57019;52.354;6.584;2022-09-09T10:36:41;6.10;;;1.80;;
69748;SDS011;57019;52.354;6.584;2022-09-09T10:55:02;9.43;;;1.70;;
69748;SDS011;57019;52.354;6.584;2022-09-09T10:57:42;6.57;;;1.40;;
69748;SDS011;57019;52.354;6.584;2022-09-09T11:02:49;6.67;;;1.40;;
69748;SDS011;57019;52.354;6.584;2022-09-09T11:05:26;8.57;;;1.50;;
69748;SDS011;57019;52.354;6.584;2022-09-09T11:07:58;8.45;;;1.50;;
69748;SDS011;57019;52.354;6.584;2022-09-09T11:10:49;8.13;;;1.20;;
69748;SDS011;57019;52.354;6.584;2022-09-09T11:13:35;6.35;;;1.40;;
69748;SDS011;57019;52.354;6.584;2022-09-09T11:16:12;9.97;;;1.60;;
69748;SDS011;57019;52.354;6.584;2022-09-09T11:18:49;5.65;;;1.20;;
69748;SDS011;57019;52.354;6.584;2022-09-09T11:21:17;5.77;;;1.33;;
69748;SDS011;57019;52.354;6.584;2022-09-09T11:23:52;6.50;;;1.50;;
69748;SDS011;57019;52.354;6.584;2022-09-09T11:26:33;7.03;;;1.50;;
69748;SDS011;57019;52.354;6.584;2022-09-09T11:31:42;6.55;;;1.48;;
69748;SDS011;57019;52.354;6.584;2022-09-09T11:36:58;6.65;;;1.40;;
69748;SDS011;57019;52.354;6.584;2022-09-09T11:42:45;7.68;;;1.50;;
69748;SDS011;57019;52.354;6.584;2022-09-09T11:48:01;8.63;;;1.47;;
69748;SDS011;57019;52.354;6.584;2022-09-09T11:55:39;23.77;;;7.95;;
69748;SDS011;57019;52.354;6.584;2022-09-09T12:00:43;13.32;;;4.40;;
69748;SDS011;57019;52.354;6.584;2022-09-09T12:03:31;20.63;;;4.90;;
69748;SDS011;57019;52.354;6.584;2022-09-09T12:06:24;13.05;;;4.07;;
69748;SDS011;57019;52.354;6.584;2022-09-09T12:08:58;20.58;;;5.20;;
69748;SDS011;57019;52.354;6.584;2022-09-09T12:11:37;12.97;;;4.20;;
69748;SDS011;57019;52.354;6.584;2022-09-09T12:14:02;15.80;;;4.37;;
69748;SDS011;57019;52.354;6.584;2022-09-09T12:21:37;10.85;;;3.33;;
69748;SDS011;57019;52.354;6.584;2022-09-09T12:24:11;12.18;;;3.42;;
69748;SDS011;57019;52.354;6.584;2022-09-09T12:26:43;11.50;;;3.10;;
69748;SDS011;57019;52.354;6.584;2022-09-09T12:31:46;11.33;;;2.97;;
69748;SDS011;57019;52.354;6.584;2022-09-09T12:37:08;11.13;;;2.93;;
69748;SDS011;57019;52.354;6.584;2022-09-09T12:39:59;9.93;;;2.70;;
69748;SDS011;57019;52.354;6.584;2022-09-09T12:42:27;13.80;;;2.70;;
69748;SDS011;57019;52.354;6.584;2022-09-09T12:44:58;9.50;;;2.60;;
69748;SDS011;57019;52.354;6.584;2022-09-09T12:50:02;8.93;;;2.43;;
69748;SDS011;57019;52.354;6.584;2022-09-09T12:54:57;7.88;;;2.28;;
69748;SDS011;57019;52.354;6.584;2022-09-09T12:57:25;7.72;;;2.03;;
69748;SDS011;57019;52.354;6.584;2022-09-09T13:00:03;8.75;;;2.00;;
69748;SDS011;57019;52.354;6.584;2022-09-09T13:02:30;8.00;;;2.20;;
69748;SDS011;57019;52.354;6.584;2022-09-09T13:05:05;7.23;;;2.40;;
69748;SDS011;57019;52.354;6.584;2022-09-09T13:07:32;7.65;;;2.33;;
69748;SDS011;57019;52.354;6.584;2022-09-09T13:09:57;7.33;;;2.33;;
69748;SDS011;57019;52.354;6.584;2022-09-09T13:12:22;8.10;;;2.30;;
69748;SDS011;57019;52.354;6.584;2022-09-09T13:14:49;7.20;;;1.80;;
69748;SDS011;57019;52.354;6.584;2022-09-09T13:17:19;9.40;;;2.17;;
69748;SDS011;57019;52.354;6.584;2022-09-09T13:19:47;7.00;;;1.93;;
69748;SDS011;57019;52.354;6.584;2022-09-09T13:22:33;10.63;;;2.03;;
69748;SDS011;57019;52.354;6.584;2022-09-09T13:25:05;7.72;;;1.65;;
69748;SDS011;57019;52.354;6.584;2022-09-09T13:27:50;7.25;;;1.80;;
69748;SDS011;57019;52.354;6.584;2022-09-09T13:33:03;7.37;;;1.80;;
69748;SDS011;57019;52.354;6.584;2022-09-09T13:35:29;10.18;;;1.90;;
69748;SDS011;57019;52.354;6.584;2022-09-09T13:37:55;10.68;;;1.98;;
69748;SDS011;57019;52.354;6.584;2022-09-09T13:40:21;8.38;;;1.80;;
69748;SDS011;57019;52.354;6.584;2022-09-09T13:42:51;9.57;;;1.70;;
69748;SDS011;57019;52.354;6.584;2022-09-09T13:45:19;6.97;;;1.60;;
69748;SDS011;57019;52.354;6.584;2022-09-09T13:47:47;8.68;;;1.60;;
69748;SDS011;57019;52.354;6.584;2022-09-09T13:50:20;9.82;;;1.95;;
69748;SDS011;57019;52.354;6.584;2022-09-09T13:52:51;6.55;;;1.40;;
69748;SDS011;57019;52.354;6.584;2022-09-09T13:55:18;7.83;;;1.70;;
69748;SDS011;57019;52.354;6.584;2022-09-09T13:57:50;7.70;;;1.60;;
69748;SDS011;57019;52.354;6.584;2022-09-09T14:00:19;7.25;;;1.70;;
69748;SDS011;57019;52.354;6.584;2022-09-09T14:02:46;10.25;;;1.75;;
69748;SDS011;57019;52.354;6.584;2022-09-09T14:05:12;8.93;;;1.52;;
69748;SDS011;57019;52.354;6.584;2022-09-09T14:07:38;7.83;;;1.47;;
69748;SDS011;57019;52.354;6.584;2022-09-09T14:10:05;6.47;;;1.50;;
69748;SDS011;57019;52.354;6.584;2022-09-09T14:12:31;8.63;;;1.42;;
69748;SDS011;57019;52.354;6.584;2022-09-09T14:14:58;7.30;;;1.60;;
69748;SDS011;57019;52.354;6.584;2022-09-09T14:17:24;6.80;;;1.47;;
69748;SDS011;57019;52.354;6.584;2022-09-09T14:19:54;7.28;;;1.40;;
69748;SDS011;57019;52.354;6.584;2022-09-09T14:22:20;6.80;;;1.33;;
69748;SDS011;57019;52.354;6.584;2022-09-09T14:24:45;5.93;;;1.60;;
69748;SDS011;57019;52.354;6.584;2022-09-09T14:27:11;6.57;;;1.60;;
69748;SDS011;57019;52.354;6.584;2022-09-09T14:29:36;6.20;;;1.63;;
69748;SDS011;57019;52.354;6.584;2022-09-09T14:32:02;7.73;;;1.57;;
69748;SDS011;57019;52.354;6.584;2022-09-09T14:34:27;7.80;;;1.60;;
69748;SDS011;57019;52.354;6.584;2022-09-09T14:36:53;5.40;;;1.63;;
69748;SDS011;57019;52.354;6.584;2022-09-09T14:39:18;8.52;;;1.60;;
69748;SDS011;57019;52.354;6.584;2022-09-09T14:41:43;5.30;;;1.40;;
69748;SDS011;57019;52.354;6.584;2022-09-09T14:44:10;7.22;;;1.42;;
69748;SDS011;57019;52.354;6.584;2022-09-09T14:46:35;6.43;;;1.50;;
69748;SDS011;57019;52.354;6.584;2022-09-09T14:49:01;7.23;;;1.87;;
69748;SDS011;57019;52.354;6.584;2022-09-09T14:51:29;6.17;;;1.30;;
69748;SDS011;57019;52.354;6.584;2022-09-09T14:53:55;5.88;;;1.60;;
69748;SDS011;57019;52.354;6.584;2022-09-09T14:56:23;5.95;;;1.25;;
69748;SDS011;57019;52.354;6.584;2022-09-09T14:58:52;4.75;;;1.30;;
69748;SDS011;57019;52.354;6.584;2022-09-09T15:01:21;4.70;;;1.20;;
69748;SDS011;57019;52.354;6.584;2022-09-09T15:04:00;5.85;;;1.30;;
69748;SDS011;57019;52.354;6.584;2022-09-09T15:06:28;5.03;;;1.17;;
69748;SDS011;57019;52.354;6.584;2022-09-09T15:08:56;5.45;;;1.50;;
69748;SDS011;57019;52.354;6.584;2022-09-09T15:11:33;5.28;;;1.50;;
69748;SDS011;57019;52.354;6.584;2022-09-09T15:14:03;8.30;;;1.70;;
69748;SDS011;57019;52.354;6.584;2022-09-09T15:16:30;7.13;;;1.55;;
69748;SDS011;57019;52.354;6.584;2022-09-09T15:19:00;7.18;;;1.77;;
69748;SDS011;57019;52.354;6.584;2022-09-09T15:21:27;6.53;;;1.30;;
69748;SDS011;57019;52.354;6.584;2022-09-09T15:23:54;4.25;;;1.30;;
69748;SDS011;57019;52.354;6.584;2022-09-09T15:26:21;6.33;;;1.40;;
69748;SDS011;57019;52.354;6.584;2022-09-09T15:28:47;5.45;;;1.35;;
69748;SDS011;57019;52.354;6.584;2022-09-09T15:31:19;8.73;;;1.67;;
69748;SDS011;57019;52.354;6.584;2022-09-09T15:38:49;6.90;;;1.80;;
69748;SDS011;57019;52.354;6.584;2022-09-09T15:41:17;6.28;;;1.65;;
69748;SDS011;57019;52.354;6.584;2022-09-09T15:43:47;7.85;;;1.70;;
69748;SDS011;57019;52.354;6.584;2022-09-09T15:48:52;5.10;;;1.40;;
69748;SDS011;57019;52.354;6.584;2022-09-09T15:51:19;5.10;;;1.37;;
69748;SDS011;57019;52.354;6.584;2022-09-09T15:53:45;6.90;;;1.40;;
69748;SDS011;57019;52.354;6.584;2022-09-09T15:56:10;8.50;;;1.27;;
69748;SDS011;57019;52.354;6.584;2022-09-09T15:58:36;7.07;;;1.42;;
69748;SDS011;57019;52.354;6.584;2022-09-09T16:01:02;6.13;;;1.30;;
69748;SDS011;57019;52.354;6.584;2022-09-09T16:03:29;5.57;;;1.30;;
69748;SDS011;57019;52.354;6.584;2022-09-09T16:06:07;5.32;;;1.27;;
69748;SDS011;57019;52.354;6.584;2022-09-09T16:08:34;6.07;;;1.40;;
69748;SDS011;57019;52.354;6.584;2022-09-09T16:11:04;6.72;;;1.33;;
69748;SDS011;57019;52.354;6.584;2022-09-09T16:13:34;8.40;;;1.70;;
69748;SDS011;57019;52.354;6.584;2022-09-09T16:16:03;6.70;;;1.63;;
69748;SDS011;57019;52.354;6.584;2022-09-09T16:18:32;5.65;;;1.30;;
69748;SDS011;57019;52.354;6.584;2022-09-09T16:20:59;6.53;;;1.57;;
69748;SDS011;57019;52.354;6.584;2022-09-09T16:23:25;5.35;;;1.48;;
69748;SDS011;57019;52.354;6.584;2022-09-09T16:25:56;6.27;;;1.40;;
69748;SDS011;57019;52.354;6.584;2022-09-09T16:28:22;6.25;;;1.40;;
69748;SDS011;57019;52.354;6.584;2022-09-09T16:30:48;5.27;;;1.20;;
69748;SDS011;57019;52.354;6.584;2022-09-09T16:33:14;8.02;;;1.30;;
69748;SDS011;57019;52.354;6.584;2022-09-09T16:35:40;7.20;;;1.30;;
69748;SDS011;57019;52.354;6.584;2022-09-09T16:38:06;19.60;;;1.50;;
69748;SDS011;57019;52.354;6.584;2022-09-09T16:40:34;9.93;;;1.50;;
69748;SDS011;57019;52.354;6.584;2022-09-09T16:43:01;7.03;;;1.30;;
69748;SDS011;57019;52.354;6.584;2022-09-09T16:45:27;5.73;;;1.27;;
69748;SDS011;57019;52.354;6.584;2022-09-09T16:47:52;4.90;;;1.20;;
69748;SDS011;57019;52.354;6.584;2022-09-09T16:50:18;5.85;;;1.30;;
69748;SDS011;57019;52.354;6.584;2022-09-09T16:52:44;6.05;;;1.50;;
69748;SDS011;57019;52.354;6.584;2022-09-09T16:55:09;4.97;;;1.33;;
69748;SDS011;57019;52.354;6.584;2022-09-09T16:57:34;6.37;;;1.57;;
69748;SDS011;57019;52.354;6.584;2022-09-09T17:00:00;9.73;;;1.40;;
69748;SDS011;57019;52.354;6.584;2022-09-09T17:02:26;6.03;;;1.40;;
69748;SDS011;57019;52.354;6.584;2022-09-09T17:04:51;5.27;;;1.40;;
69748;SDS011;57019;52.354;6.584;2022-09-09T17:07:17;6.90;;;1.60;;
69748;SDS011;57019;52.354;6.584;2022-09-09T17:09:44;5.77;;;1.27;;
69748;SDS011;57019;52.354;6.584;2022-09-09T17:12:10;6.93;;;1.40;;
69748;SDS011;57019;52.354;6.584;2022-09-09T17:14:37;6.22;;;1.20;;
69748;SDS011;57019;52.354;6.584;2022-09-09T17:17:03;6.05;;;1.23;;
69748;SDS011;57019;52.354;6.584;2022-09-09T17:19:29;5.30;;;1.23;;
69748;SDS011;57019;52.354;6.584;2022-09-09T17:21:55;4.87;;;1.27;;
69748;SDS011;57019;52.354;6.584;2022-09-09T17:24:22;7.57;;;1.40;;
69748;SDS011;57019;52.354;6.584;2022-09-09T17:26:47;6.78;;;1.40;;
69748;SDS011;57019;52.354;6.584;2022-09-09T17:29:13;6.37;;;1.20;;
69748;SDS011;57019;52.354;6.584;2022-09-09T17:31:38;7.07;;;1.33;;
69748;SDS011;57019;52.354;6.584;2022-09-09T17:34:05;7.78;;;1.30;;